sensor_id;sensor_type;location;lat;lon;timestamp;P1;durP1;ratioP1;P2;durP2;ratioP2
20997;SDS011;10657;51.276;6.390;2022-11-30T00:01:13;49.67;;;19.77;;
20997;SDS011;10657;51.276;6.390;2022-11-30T00:03:44;52.10;;;20.02;;
20997;SDS011;10657;51.276;6.390;2022-11-30T00:06:13;49.25;;;20.30;;
20997;SDS011;10657;51.276;6.390;2022-11-30T00:08:41;50.75;;;21.60;;
20997;SDS011;10657;51.276;6.390;2022-11-30T00:13:35;51.40;;;20.63;;
20997;SDS011;10657;51.276;6.390;2022-11-30T00:16:02;42.50;;;17.75;;
20997;SDS011;10657;51.276;6.390;2022-11-30T00:18:29;45.03;;;18.90;;
20997;SDS011;10657;51.276;6.390;2022-11-30T00:20:59;50.88;;;20.60;;
20997;SDS011;10657;51.276;6.390;2022-11-30T00:23:30;42.63;;;18.00;;
20997;SDS011;10657;51.276;6.390;2022-11-30T00:26:01;45.88;;;21.38;;
20997;SDS011;10657;51.276;6.390;2022-11-30T00:28:29;41.92;;;19.35;;
20997;SDS011;10657;51.276;6.390;2022-11-30T00:30:58;48.58;;;20.30;;
20997;SDS011;10657;51.276;6.390;2022-11-30T00:33:27;46.95;;;20.27;;
20997;SDS011;10657;51.276;6.390;2022-11-30T00:36:00;52.20;;;21.05;;
20997;SDS011;10657;51.276;6.390;2022-11-30T00:38:30;47.08;;;20.50;;
20997;SDS011;10657;51.276;6.390;2022-11-30T00:40:57;45.03;;;20.35;;
20997;SDS011;10657;51.276;6.390;2022-11-30T00:43:24;45.30;;;19.42;;
20997;SDS011;10657;51.276;6.390;2022-11-30T00:45:51;49.60;;;20.88;;
20997;SDS011;10657;51.276;6.390;2022-11-30T00:48:18;50.67;;;19.73;;
20997;SDS011;10657;51.276;6.390;2022-11-30T00:50:44;47.53;;;21.50;;
20997;SDS011;10657;51.276;6.390;2022-11-30T00:53:12;47.85;;;21.15;;
20997;SDS011;10657;51.276;6.390;2022-11-30T00:55:39;52.78;;;21.40;;
20997;SDS011;10657;51.276;6.390;2022-11-30T00:58:05;52.67;;;20.75;;
20997;SDS011;10657;51.276;6.390;2022-11-30T01:00:32;48.05;;;20.27;;
20997;SDS011;10657;51.276;6.390;2022-11-30T01:02:59;45.92;;;20.88;;
20997;SDS011;10657;51.276;6.390;2022-11-30T01:05:25;47.08;;;20.25;;
20997;SDS011;10657;51.276;6.390;2022-11-30T01:07:52;48.97;;;21.63;;
20997;SDS011;10657;51.276;6.390;2022-11-30T01:10:19;51.90;;;21.50;;
20997;SDS011;10657;51.276;6.390;2022-11-30T01:12:48;55.35;;;22.70;;
20997;SDS011;10657;51.276;6.390;2022-11-30T01:15:14;47.60;;;20.48;;
20997;SDS011;10657;51.276;6.390;2022-11-30T01:17:41;46.63;;;20.08;;
20997;SDS011;10657;51.276;6.390;2022-11-30T01:20:08;51.28;;;21.75;;
20997;SDS011;10657;51.276;6.390;2022-11-30T01:22:34;48.33;;;20.33;;
20997;SDS011;10657;51.276;6.390;2022-11-30T01:25:01;48.30;;;19.30;;
20997;SDS011;10657;51.276;6.390;2022-11-30T01:27:28;51.78;;;22.27;;
20997;SDS011;10657;51.276;6.390;2022-11-30T01:29:55;49.00;;;21.65;;
20997;SDS011;10657;51.276;6.390;2022-11-30T01:32:22;49.15;;;21.02;;
20997;SDS011;10657;51.276;6.390;2022-11-30T01:34:49;50.00;;;21.77;;
20997;SDS011;10657;51.276;6.390;2022-11-30T01:37:15;43.47;;;21.05;;
20997;SDS011;10657;51.276;6.390;2022-11-30T01:39:42;50.75;;;23.50;;
20997;SDS011;10657;51.276;6.390;2022-11-30T01:42:13;52.05;;;23.25;;
20997;SDS011;10657;51.276;6.390;2022-11-30T01:44:54;51.35;;;21.90;;
20997;SDS011;10657;51.276;6.390;2022-11-30T01:47:32;43.08;;;21.13;;
20997;SDS011;10657;51.276;6.390;2022-11-30T01:50:10;48.28;;;21.55;;
20997;SDS011;10657;51.276;6.390;2022-11-30T01:52:46;49.08;;;21.73;;
20997;SDS011;10657;51.276;6.390;2022-11-30T01:58:02;44.22;;;19.38;;
20997;SDS011;10657;51.276;6.390;2022-11-30T02:00:34;32.53;;;14.00;;
20997;SDS011;10657;51.276;6.390;2022-11-30T02:03:09;41.40;;;18.90;;
20997;SDS011;10657;51.276;6.390;2022-11-30T02:05:42;35.22;;;16.65;;
20997;SDS011;10657;51.276;6.390;2022-11-30T02:08:09;41.13;;;19.52;;
20997;SDS011;10657;51.276;6.390;2022-11-30T02:10:37;38.80;;;17.08;;
20997;SDS011;10657;51.276;6.390;2022-11-30T02:13:14;45.25;;;19.80;;
20997;SDS011;10657;51.276;6.390;2022-11-30T02:18:45;42.70;;;19.35;;
20997;SDS011;10657;51.276;6.390;2022-11-30T02:21:29;39.17;;;16.42;;
20997;SDS011;10657;51.276;6.390;2022-11-30T02:32:28;37.80;;;18.42;;
20997;SDS011;10657;51.276;6.390;2022-11-30T02:35:01;30.80;;;14.45;;
20997;SDS011;10657;51.276;6.390;2022-11-30T02:37:29;38.67;;;19.35;;
20997;SDS011;10657;51.276;6.390;2022-11-30T02:39:59;34.40;;;17.42;;
20997;SDS011;10657;51.276;6.390;2022-11-30T02:42:25;36.72;;;18.17;;
20997;SDS011;10657;51.276;6.390;2022-11-30T02:44:52;40.05;;;16.83;;
20997;SDS011;10657;51.276;6.390;2022-11-30T02:47:25;33.97;;;16.75;;
20997;SDS011;10657;51.276;6.390;2022-11-30T02:50:16;36.38;;;17.50;;
20997;SDS011;10657;51.276;6.390;2022-11-30T02:52:48;30.58;;;15.77;;
20997;SDS011;10657;51.276;6.390;2022-11-30T02:55:16;30.92;;;16.40;;
20997;SDS011;10657;51.276;6.390;2022-11-30T02:57:44;10.15;;;4.75;;
20997;SDS011;10657;51.276;6.390;2022-11-30T03:00:11;11.02;;;5.18;;
20997;SDS011;10657;51.276;6.390;2022-11-30T03:02:39;14.68;;;7.30;;
20997;SDS011;10657;51.276;6.390;2022-11-30T03:05:06;12.63;;;6.05;;
20997;SDS011;10657;51.276;6.390;2022-11-30T03:07:33;19.33;;;9.85;;
20997;SDS011;10657;51.276;6.390;2022-11-30T03:10:00;12.57;;;6.25;;
20997;SDS011;10657;51.276;6.390;2022-11-30T03:12:27;18.73;;;10.50;;
20997;SDS011;10657;51.276;6.390;2022-11-30T03:14:54;14.05;;;7.35;;
20997;SDS011;10657;51.276;6.390;2022-11-30T03:17:21;19.77;;;11.15;;
20997;SDS011;10657;51.276;6.390;2022-11-30T03:19:47;16.95;;;9.50;;
20997;SDS011;10657;51.276;6.390;2022-11-30T03:22:14;17.70;;;9.82;;
20997;SDS011;10657;51.276;6.390;2022-11-30T03:24:41;22.73;;;13.40;;
20997;SDS011;10657;51.276;6.390;2022-11-30T03:27:07;23.55;;;15.35;;
20997;SDS011;10657;51.276;6.390;2022-11-30T03:29:34;21.50;;;13.18;;
20997;SDS011;10657;51.276;6.390;2022-11-30T03:32:00;23.33;;;14.27;;
20997;SDS011;10657;51.276;6.390;2022-11-30T03:34:27;19.13;;;11.40;;
20997;SDS011;10657;51.276;6.390;2022-11-30T03:36:54;21.33;;;13.25;;
20997;SDS011;10657;51.276;6.390;2022-11-30T03:39:20;21.13;;;12.80;;
20997;SDS011;10657;51.276;6.390;2022-11-30T03:41:48;22.95;;;14.18;;
20997;SDS011;10657;51.276;6.390;2022-11-30T03:44:15;21.73;;;12.93;;
20997;SDS011;10657;51.276;6.390;2022-11-30T03:46:42;22.90;;;13.75;;
20997;SDS011;10657;51.276;6.390;2022-11-30T03:49:09;24.60;;;14.48;;
20997;SDS011;10657;51.276;6.390;2022-11-30T03:51:35;19.70;;;11.60;;
20997;SDS011;10657;51.276;6.390;2022-11-30T03:54:02;23.80;;;13.82;;
20997;SDS011;10657;51.276;6.390;2022-11-30T03:56:29;21.92;;;14.15;;
20997;SDS011;10657;51.276;6.390;2022-11-30T03:58:55;22.08;;;12.50;;
20997;SDS011;10657;51.276;6.390;2022-11-30T04:01:22;21.90;;;13.07;;
20997;SDS011;10657;51.276;6.390;2022-11-30T04:03:50;22.85;;;14.05;;
20997;SDS011;10657;51.276;6.390;2022-11-30T04:06:17;24.45;;;14.55;;
20997;SDS011;10657;51.276;6.390;2022-11-30T04:08:45;18.20;;;10.57;;
20997;SDS011;10657;51.276;6.390;2022-11-30T04:11:12;18.50;;;10.40;;
20997;SDS011;10657;51.276;6.390;2022-11-30T04:13:40;22.63;;;12.60;;
20997;SDS011;10657;51.276;6.390;2022-11-30T04:16:08;21.77;;;13.77;;
20997;SDS011;10657;51.276;6.390;2022-11-30T04:18:35;21.55;;;13.25;;
20997;SDS011;10657;51.276;6.390;2022-11-30T04:21:02;17.40;;;10.00;;
20997;SDS011;10657;51.276;6.390;2022-11-30T04:23:30;21.05;;;11.68;;
20997;SDS011;10657;51.276;6.390;2022-11-30T04:25:59;20.17;;;11.75;;
20997;SDS011;10657;51.276;6.390;2022-11-30T04:28:28;17.88;;;10.55;;
20997;SDS011;10657;51.276;6.390;2022-11-30T04:30:55;22.45;;;13.55;;
20997;SDS011;10657;51.276;6.390;2022-11-30T04:33:22;22.35;;;11.10;;
20997;SDS011;10657;51.276;6.390;2022-11-30T04:35:50;19.95;;;10.52;;
20997;SDS011;10657;51.276;6.390;2022-11-30T04:38:23;18.35;;;10.18;;
20997;SDS011;10657;51.276;6.390;2022-11-30T04:40:50;16.52;;;9.50;;
20997;SDS011;10657;51.276;6.390;2022-11-30T04:43:17;15.02;;;8.32;;
20997;SDS011;10657;51.276;6.390;2022-11-30T04:45:45;19.45;;;10.57;;
20997;SDS011;10657;51.276;6.390;2022-11-30T04:48:13;19.15;;;10.35;;
20997;SDS011;10657;51.276;6.390;2022-11-30T04:50:40;18.88;;;9.85;;
20997;SDS011;10657;51.276;6.390;2022-11-30T04:53:07;17.70;;;9.88;;
20997;SDS011;10657;51.276;6.390;2022-11-30T04:55:37;19.45;;;12.10;;
20997;SDS011;10657;51.276;6.390;2022-11-30T04:58:04;20.83;;;12.75;;
20997;SDS011;10657;51.276;6.390;2022-11-30T05:00:32;24.95;;;15.63;;
20997;SDS011;10657;51.276;6.390;2022-11-30T05:02:59;20.10;;;11.70;;
20997;SDS011;10657;51.276;6.390;2022-11-30T05:05:25;25.13;;;15.25;;
20997;SDS011;10657;51.276;6.390;2022-11-30T05:07:56;20.65;;;11.63;;
20997;SDS011;10657;51.276;6.390;2022-11-30T05:10:24;24.35;;;14.77;;
20997;SDS011;10657;51.276;6.390;2022-11-30T05:12:52;21.77;;;12.10;;
20997;SDS011;10657;51.276;6.390;2022-11-30T05:15:19;23.10;;;13.45;;
20997;SDS011;10657;51.276;6.390;2022-11-30T05:17:45;18.55;;;10.50;;
20997;SDS011;10657;51.276;6.390;2022-11-30T05:20:12;23.80;;;12.88;;
20997;SDS011;10657;51.276;6.390;2022-11-30T05:22:39;20.40;;;10.90;;
20997;SDS011;10657;51.276;6.390;2022-11-30T05:25:06;26.45;;;14.40;;
20997;SDS011;10657;51.276;6.390;2022-11-30T05:27:32;20.58;;;12.57;;
20997;SDS011;10657;51.276;6.390;2022-11-30T05:30:00;22.27;;;13.75;;
20997;SDS011;10657;51.276;6.390;2022-11-30T05:32:27;27.63;;;15.15;;
20997;SDS011;10657;51.276;6.390;2022-11-30T05:34:53;22.55;;;12.90;;
20997;SDS011;10657;51.276;6.390;2022-11-30T05:37:21;22.27;;;13.25;;
20997;SDS011;10657;51.276;6.390;2022-11-30T05:39:47;20.45;;;12.73;;
20997;SDS011;10657;51.276;6.390;2022-11-30T05:42:14;23.60;;;14.65;;
20997;SDS011;10657;51.276;6.390;2022-11-30T05:44:40;25.38;;;15.98;;
20997;SDS011;10657;51.276;6.390;2022-11-30T05:47:08;26.27;;;16.20;;
20997;SDS011;10657;51.276;6.390;2022-11-30T05:49:34;9.95;;;4.85;;
20997;SDS011;10657;51.276;6.390;2022-11-30T05:52:01;13.68;;;6.50;;
20997;SDS011;10657;51.276;6.390;2022-11-30T05:54:27;25.33;;;15.18;;
20997;SDS011;10657;51.276;6.390;2022-11-30T05:56:54;17.02;;;10.45;;
20997;SDS011;10657;51.276;6.390;2022-11-30T05:59:21;19.80;;;11.45;;
20997;SDS011;10657;51.276;6.390;2022-11-30T06:01:50;25.17;;;15.38;;
20997;SDS011;10657;51.276;6.390;2022-11-30T06:04:17;23.50;;;15.73;;
20997;SDS011;10657;51.276;6.390;2022-11-30T06:06:44;27.50;;;18.05;;
20997;SDS011;10657;51.276;6.390;2022-11-30T06:09:10;27.42;;;17.58;;
20997;SDS011;10657;51.276;6.390;2022-11-30T06:11:37;23.65;;;14.43;;
20997;SDS011;10657;51.276;6.390;2022-11-30T06:14:04;26.63;;;15.65;;
20997;SDS011;10657;51.276;6.390;2022-11-30T06:16:30;21.30;;;12.05;;
20997;SDS011;10657;51.276;6.390;2022-11-30T06:18:57;22.13;;;13.18;;
20997;SDS011;10657;51.276;6.390;2022-11-30T06:21:24;22.40;;;13.38;;
20997;SDS011;10657;51.276;6.390;2022-11-30T06:23:51;19.42;;;10.98;;
20997;SDS011;10657;51.276;6.390;2022-11-30T06:26:17;17.63;;;10.32;;
20997;SDS011;10657;51.276;6.390;2022-11-30T06:28:44;18.25;;;10.45;;
20997;SDS011;10657;51.276;6.390;2022-11-30T06:31:14;23.88;;;12.80;;
20997;SDS011;10657;51.276;6.390;2022-11-30T06:33:41;22.45;;;13.63;;
20997;SDS011;10657;51.276;6.390;2022-11-30T06:36:08;23.80;;;14.23;;
20997;SDS011;10657;51.276;6.390;2022-11-30T06:38:35;25.33;;;16.13;;
20997;SDS011;10657;51.276;6.390;2022-11-30T06:41:03;21.83;;;11.73;;
20997;SDS011;10657;51.276;6.390;2022-11-30T06:43:32;22.48;;;12.90;;
20997;SDS011;10657;51.276;6.390;2022-11-30T06:46:00;21.55;;;12.13;;
20997;SDS011;10657;51.276;6.390;2022-11-30T06:48:27;25.13;;;14.40;;
20997;SDS011;10657;51.276;6.390;2022-11-30T06:50:54;18.27;;;9.70;;
20997;SDS011;10657;51.276;6.390;2022-11-30T06:53:21;24.38;;;15.18;;
20997;SDS011;10657;51.276;6.390;2022-11-30T06:55:47;20.48;;;9.95;;
20997;SDS011;10657;51.276;6.390;2022-11-30T06:58:14;22.33;;;11.45;;
20997;SDS011;10657;51.276;6.390;2022-11-30T07:00:41;19.38;;;10.68;;
20997;SDS011;10657;51.276;6.390;2022-11-30T07:03:08;19.35;;;11.25;;
20997;SDS011;10657;51.276;6.390;2022-11-30T07:05:40;18.13;;;10.57;;
20997;SDS011;10657;51.276;6.390;2022-11-30T07:08:09;50.30;;;14.02;;
20997;SDS011;10657;51.276;6.390;2022-11-30T07:10:38;20.05;;;11.05;;
20997;SDS011;10657;51.276;6.390;2022-11-30T07:13:09;22.52;;;13.50;;
20997;SDS011;10657;51.276;6.390;2022-11-30T07:15:38;22.70;;;10.75;;
20997;SDS011;10657;51.276;6.390;2022-11-30T07:18:05;21.45;;;11.68;;
20997;SDS011;10657;51.276;6.390;2022-11-30T07:20:32;26.75;;;16.02;;
20997;SDS011;10657;51.276;6.390;2022-11-30T07:22:59;18.63;;;10.55;;
20997;SDS011;10657;51.276;6.390;2022-11-30T07:25:45;17.83;;;9.73;;
20997;SDS011;10657;51.276;6.390;2022-11-30T07:28:32;21.58;;;11.95;;
20997;SDS011;10657;51.276;6.390;2022-11-30T07:31:01;19.73;;;10.80;;
20997;SDS011;10657;51.276;6.390;2022-11-30T07:33:41;19.35;;;10.63;;
20997;SDS011;10657;51.276;6.390;2022-11-30T07:36:09;20.02;;;10.18;;
20997;SDS011;10657;51.276;6.390;2022-11-30T07:38:36;21.33;;;11.82;;
20997;SDS011;10657;51.276;6.390;2022-11-30T07:41:04;20.33;;;10.38;;
20997;SDS011;10657;51.276;6.390;2022-11-30T07:43:31;21.17;;;11.65;;
20997;SDS011;10657;51.276;6.390;2022-11-30T07:45:58;20.08;;;11.25;;
20997;SDS011;10657;51.276;6.390;2022-11-30T07:48:25;20.63;;;11.77;;
20997;SDS011;10657;51.276;6.390;2022-11-30T07:50:52;19.25;;;11.20;;
20997;SDS011;10657;51.276;6.390;2022-11-30T07:53:19;22.70;;;13.20;;
20997;SDS011;10657;51.276;6.390;2022-11-30T07:55:45;19.08;;;10.88;;
20997;SDS011;10657;51.276;6.390;2022-11-30T07:58:14;22.65;;;12.48;;
20997;SDS011;10657;51.276;6.390;2022-11-30T08:00:42;18.77;;;11.13;;
20997;SDS011;10657;51.276;6.390;2022-11-30T08:03:09;27.48;;;16.23;;
20997;SDS011;10657;51.276;6.390;2022-11-30T08:05:36;23.50;;;14.23;;
20997;SDS011;10657;51.276;6.390;2022-11-30T08:08:02;22.48;;;11.05;;
20997;SDS011;10657;51.276;6.390;2022-11-30T08:10:29;23.50;;;13.93;;
20997;SDS011;10657;51.276;6.390;2022-11-30T08:12:56;25.27;;;15.38;;
20997;SDS011;10657;51.276;6.390;2022-11-30T08:15:23;27.08;;;16.40;;
20997;SDS011;10657;51.276;6.390;2022-11-30T08:17:58;19.50;;;10.90;;
20997;SDS011;10657;51.276;6.390;2022-11-30T08:20:30;22.98;;;13.85;;
20997;SDS011;10657;51.276;6.390;2022-11-30T08:22:57;23.52;;;14.80;;
20997;SDS011;10657;51.276;6.390;2022-11-30T08:25:24;25.27;;;14.63;;
20997;SDS011;10657;51.276;6.390;2022-11-30T08:27:51;24.20;;;14.40;;
20997;SDS011;10657;51.276;6.390;2022-11-30T08:30:17;23.15;;;14.25;;
20997;SDS011;10657;51.276;6.390;2022-11-30T08:32:44;23.33;;;13.85;;
20997;SDS011;10657;51.276;6.390;2022-11-30T08:35:11;24.25;;;14.60;;
20997;SDS011;10657;51.276;6.390;2022-11-30T08:37:37;26.67;;;14.55;;
20997;SDS011;10657;51.276;6.390;2022-11-30T08:40:04;25.70;;;15.18;;
20997;SDS011;10657;51.276;6.390;2022-11-30T08:42:31;24.20;;;15.32;;
20997;SDS011;10657;51.276;6.390;2022-11-30T08:44:58;26.83;;;15.68;;
20997;SDS011;10657;51.276;6.390;2022-11-30T08:47:25;25.10;;;15.10;;
20997;SDS011;10657;51.276;6.390;2022-11-30T08:49:53;20.77;;;12.07;;
20997;SDS011;10657;51.276;6.390;2022-11-30T08:52:19;22.98;;;13.88;;
20997;SDS011;10657;51.276;6.390;2022-11-30T08:54:46;21.77;;;11.98;;
20997;SDS011;10657;51.276;6.390;2022-11-30T08:57:33;26.00;;;15.40;;
20997;SDS011;10657;51.276;6.390;2022-11-30T08:59:59;24.10;;;14.60;;
20997;SDS011;10657;51.276;6.390;2022-11-30T09:02:26;25.98;;;14.85;;
20997;SDS011;10657;51.276;6.390;2022-11-30T09:04:53;24.15;;;13.70;;
20997;SDS011;10657;51.276;6.390;2022-11-30T09:07:19;26.67;;;15.30;;
20997;SDS011;10657;51.276;6.390;2022-11-30T09:09:46;25.48;;;14.90;;
20997;SDS011;10657;51.276;6.390;2022-11-30T09:12:13;24.73;;;15.35;;
20997;SDS011;10657;51.276;6.390;2022-11-30T09:14:39;21.92;;;12.18;;
20997;SDS011;10657;51.276;6.390;2022-11-30T09:17:06;26.40;;;15.18;;
20997;SDS011;10657;51.276;6.390;2022-11-30T09:19:33;17.52;;;10.05;;
20997;SDS011;10657;51.276;6.390;2022-11-30T09:21:59;27.92;;;15.35;;
20997;SDS011;10657;51.276;6.390;2022-11-30T09:24:26;20.42;;;11.65;;
20997;SDS011;10657;51.276;6.390;2022-11-30T09:26:53;28.98;;;14.60;;
20997;SDS011;10657;51.276;6.390;2022-11-30T09:29:22;23.70;;;12.50;;
20997;SDS011;10657;51.276;6.390;2022-11-30T09:31:48;25.17;;;15.52;;
20997;SDS011;10657;51.276;6.390;2022-11-30T09:34:15;29.73;;;16.77;;
20997;SDS011;10657;51.276;6.390;2022-11-30T09:36:42;30.60;;;17.35;;
20997;SDS011;10657;51.276;6.390;2022-11-30T09:39:09;29.98;;;17.13;;
20997;SDS011;10657;51.276;6.390;2022-11-30T09:44:24;27.38;;;15.52;;
20997;SDS011;10657;51.276;6.390;2022-11-30T09:47:34;31.00;;;15.85;;
20997;SDS011;10657;51.276;6.390;2022-11-30T09:50:15;28.80;;;15.75;;
20997;SDS011;10657;51.276;6.390;2022-11-30T09:52:46;26.50;;;15.20;;
20997;SDS011;10657;51.276;6.390;2022-11-30T09:55:41;31.40;;;18.08;;
20997;SDS011;10657;51.276;6.390;2022-11-30T09:58:20;26.38;;;15.20;;
20997;SDS011;10657;51.276;6.390;2022-11-30T10:00:52;29.63;;;16.58;;
20997;SDS011;10657;51.276;6.390;2022-11-30T10:03:19;29.63;;;16.05;;
20997;SDS011;10657;51.276;6.390;2022-11-30T10:16:30;29.52;;;16.20;;
20997;SDS011;10657;51.276;6.390;2022-11-30T10:30:18;26.33;;;15.20;;
20997;SDS011;10657;51.276;6.390;2022-11-30T10:32:58;24.10;;;14.27;;
20997;SDS011;10657;51.276;6.390;2022-11-30T10:38:49;32.70;;;17.92;;
20997;SDS011;10657;51.276;6.390;2022-11-30T10:41:03;23.58;;;12.02;;
20997;SDS011;10657;51.276;6.390;2022-11-30T10:43:37;15.45;;;6.68;;
20997;SDS011;10657;51.276;6.390;2022-11-30T10:46:20;30.08;;;15.68;;
20997;SDS011;10657;51.276;6.390;2022-11-30T10:48:58;24.10;;;11.40;;
20997;SDS011;10657;51.276;6.390;2022-11-30T10:51:31;23.75;;;11.45;;
20997;SDS011;10657;51.276;6.390;2022-11-30T10:54:01;37.05;;;15.85;;
20997;SDS011;10657;51.276;6.390;2022-11-30T10:56:37;25.90;;;13.82;;
20997;SDS011;10657;51.276;6.390;2022-11-30T10:59:25;21.95;;;11.15;;
20997;SDS011;10657;51.276;6.390;2022-11-30T11:05:11;16.35;;;8.73;;
20997;SDS011;10657;51.276;6.390;2022-11-30T11:07:43;20.13;;;10.60;;
20997;SDS011;10657;51.276;6.390;2022-11-30T11:10:26;28.17;;;14.02;;
20997;SDS011;10657;51.276;6.390;2022-11-30T11:12:53;19.60;;;9.68;;
20997;SDS011;10657;51.276;6.390;2022-11-30T11:15:22;20.25;;;10.27;;
20997;SDS011;10657;51.276;6.390;2022-11-30T11:17:49;21.30;;;10.75;;
20997;SDS011;10657;51.276;6.390;2022-11-30T11:20:31;7.20;;;2.97;;
20997;SDS011;10657;51.276;6.390;2022-11-30T11:23:03;12.70;;;6.35;;
20997;SDS011;10657;51.276;6.390;2022-11-30T11:25:34;23.35;;;12.10;;
20997;SDS011;10657;51.276;6.390;2022-11-30T11:28:06;18.63;;;9.57;;
20997;SDS011;10657;51.276;6.390;2022-11-30T11:30:39;18.50;;;9.88;;
20997;SDS011;10657;51.276;6.390;2022-11-30T11:35:39;31.52;;;18.52;;
20997;SDS011;10657;51.276;6.390;2022-11-30T11:43:22;30.48;;;16.00;;
20997;SDS011;10657;51.276;6.390;2022-11-30T11:45:51;9.73;;;4.78;;
20997;SDS011;10657;51.276;6.390;2022-11-30T11:48:31;30.05;;;16.42;;
20997;SDS011;10657;51.276;6.390;2022-11-30T11:51:05;31.30;;;16.75;;
20997;SDS011;10657;51.276;6.390;2022-11-30T11:53:49;10.73;;;5.38;;
20997;SDS011;10657;51.276;6.390;2022-11-30T11:56:24;29.42;;;16.52;;
20997;SDS011;10657;51.276;6.390;2022-11-30T12:04:43;19.42;;;9.30;;
20997;SDS011;10657;51.276;6.390;2022-11-30T12:07:23;19.90;;;10.57;;
20997;SDS011;10657;51.276;6.390;2022-11-30T12:10:20;10.90;;;5.38;;
20997;SDS011;10657;51.276;6.390;2022-11-30T12:13:18;14.95;;;6.88;;
20997;SDS011;10657;51.276;6.390;2022-11-30T12:16:02;20.95;;;11.25;;
20997;SDS011;10657;51.276;6.390;2022-11-30T12:33:40;6.32;;;2.83;;
20997;SDS011;10657;51.276;6.390;2022-11-30T12:41:59;23.27;;;12.93;;
20997;SDS011;10657;51.276;6.390;2022-11-30T12:44:46;18.83;;;10.35;;
20997;SDS011;10657;51.276;6.390;2022-11-30T12:58:34;16.65;;;7.72;;
20997;SDS011;10657;51.276;6.390;2022-11-30T13:01:12;6.05;;;2.60;;
20997;SDS011;10657;51.276;6.390;2022-11-30T13:04:06;13.88;;;6.97;;
20997;SDS011;10657;51.276;6.390;2022-11-30T13:06:43;25.40;;;12.02;;
20997;SDS011;10657;51.276;6.390;2022-11-30T13:09:22;9.25;;;2.88;;
20997;SDS011;10657;51.276;6.390;2022-11-30T13:11:56;13.82;;;7.85;;
20997;SDS011;10657;51.276;6.390;2022-11-30T13:14:29;27.35;;;14.75;;
20997;SDS011;10657;51.276;6.390;2022-11-30T13:17:00;7.50;;;3.17;;
20997;SDS011;10657;51.276;6.390;2022-11-30T13:22:17;7.53;;;3.53;;
20997;SDS011;10657;51.276;6.390;2022-11-30T13:24:56;17.50;;;8.25;;
20997;SDS011;10657;51.276;6.390;2022-11-30T13:27:29;15.93;;;7.88;;
20997;SDS011;10657;51.276;6.390;2022-11-30T13:32:30;7.57;;;2.80;;
20997;SDS011;10657;51.276;6.390;2022-11-30T13:41:03;16.30;;;7.60;;
20997;SDS011;10657;51.276;6.390;2022-11-30T13:43:36;16.17;;;8.43;;
20997;SDS011;10657;51.276;6.390;2022-11-30T13:46:12;18.55;;;9.65;;
20997;SDS011;10657;51.276;6.390;2022-11-30T13:48:43;15.93;;;7.60;;
20997;SDS011;10657;51.276;6.390;2022-11-30T13:51:11;6.40;;;2.70;;
20997;SDS011;10657;51.276;6.390;2022-11-30T13:53:42;8.77;;;4.07;;
20997;SDS011;10657;51.276;6.390;2022-11-30T14:10:32;11.48;;;5.13;;
20997;SDS011;10657;51.276;6.390;2022-11-30T14:26:23;6.97;;;2.97;;
20997;SDS011;10657;51.276;6.390;2022-11-30T14:29:15;6.45;;;2.70;;
20997;SDS011;10657;51.276;6.390;2022-11-30T14:32:04;12.80;;;6.55;;
20997;SDS011;10657;51.276;6.390;2022-11-30T14:34:46;12.50;;;4.57;;
20997;SDS011;10657;51.276;6.390;2022-11-30T14:37:19;16.20;;;8.27;;
20997;SDS011;10657;51.276;6.390;2022-11-30T14:39:48;11.77;;;5.68;;
20997;SDS011;10657;51.276;6.390;2022-11-30T14:42:20;9.27;;;4.80;;
20997;SDS011;10657;51.276;6.390;2022-11-30T14:44:48;9.60;;;3.55;;
20997;SDS011;10657;51.276;6.390;2022-11-30T14:47:22;15.63;;;8.30;;
20997;SDS011;10657;51.276;6.390;2022-11-30T14:49:50;10.00;;;3.47;;
20997;SDS011;10657;51.276;6.390;2022-11-30T14:52:43;15.50;;;7.68;;
20997;SDS011;10657;51.276;6.390;2022-11-30T14:55:18;9.20;;;4.28;;
20997;SDS011;10657;51.276;6.390;2022-11-30T15:00:37;19.25;;;10.05;;
20997;SDS011;10657;51.276;6.390;2022-11-30T15:03:14;8.52;;;3.85;;
20997;SDS011;10657;51.276;6.390;2022-11-30T15:05:58;15.18;;;8.25;;
20997;SDS011;10657;51.276;6.390;2022-11-30T15:08:28;18.40;;;10.38;;
20997;SDS011;10657;51.276;6.390;2022-11-30T15:11:06;16.63;;;9.88;;
20997;SDS011;10657;51.276;6.390;2022-11-30T15:13:39;20.02;;;10.40;;
20997;SDS011;10657;51.276;6.390;2022-11-30T15:19:23;14.10;;;7.20;;
20997;SDS011;10657;51.276;6.390;2022-11-30T15:21:52;16.35;;;9.23;;
20997;SDS011;10657;51.276;6.390;2022-11-30T15:24:20;16.08;;;9.45;;
20997;SDS011;10657;51.276;6.390;2022-11-30T15:29:36;12.18;;;6.22;;
20997;SDS011;10657;51.276;6.390;2022-11-30T15:32:07;12.35;;;6.22;;
20997;SDS011;10657;51.276;6.390;2022-11-30T15:34:46;15.38;;;7.72;;
20997;SDS011;10657;51.276;6.390;2022-11-30T15:37:34;14.85;;;7.93;;
20997;SDS011;10657;51.276;6.390;2022-11-30T15:40:06;11.82;;;6.20;;
20997;SDS011;10657;51.276;6.390;2022-11-30T15:42:36;14.43;;;7.35;;
20997;SDS011;10657;51.276;6.390;2022-11-30T15:47:49;11.82;;;6.25;;
20997;SDS011;10657;51.276;6.390;2022-11-30T15:52:49;14.40;;;7.82;;
20997;SDS011;10657;51.276;6.390;2022-11-30T16:01:14;23.00;;;12.25;;
20997;SDS011;10657;51.276;6.390;2022-11-30T16:06:45;12.43;;;6.22;;
20997;SDS011;10657;51.276;6.390;2022-11-30T16:09:23;21.92;;;11.25;;
20997;SDS011;10657;51.276;6.390;2022-11-30T16:11:57;19.30;;;8.73;;
20997;SDS011;10657;51.276;6.390;2022-11-30T16:14:25;27.15;;;14.48;;
20997;SDS011;10657;51.276;6.390;2022-11-30T16:16:53;24.38;;;10.68;;
20997;SDS011;10657;51.276;6.390;2022-11-30T16:19:20;22.27;;;12.35;;
20997;SDS011;10657;51.276;6.390;2022-11-30T16:21:47;20.58;;;10.07;;
20997;SDS011;10657;51.276;6.390;2022-11-30T16:24:15;25.20;;;13.23;;
20997;SDS011;10657;51.276;6.390;2022-11-30T16:26:41;17.70;;;8.35;;
20997;SDS011;10657;51.276;6.390;2022-11-30T16:29:16;15.27;;;8.13;;
20997;SDS011;10657;51.276;6.390;2022-11-30T16:31:43;25.98;;;10.55;;
20997;SDS011;10657;51.276;6.390;2022-11-30T16:34:10;23.27;;;12.27;;
20997;SDS011;10657;51.276;6.390;2022-11-30T16:36:37;17.35;;;8.77;;
20997;SDS011;10657;51.276;6.390;2022-11-30T16:39:04;18.80;;;10.23;;
20997;SDS011;10657;51.276;6.390;2022-11-30T16:41:31;17.25;;;10.10;;
20997;SDS011;10657;51.276;6.390;2022-11-30T16:44:00;19.02;;;10.45;;
20997;SDS011;10657;51.276;6.390;2022-11-30T16:46:27;21.98;;;11.82;;
20997;SDS011;10657;51.276;6.390;2022-11-30T16:48:54;19.48;;;9.60;;
20997;SDS011;10657;51.276;6.390;2022-11-30T16:51:23;8.73;;;4.63;;
20997;SDS011;10657;51.276;6.390;2022-11-30T16:53:55;18.08;;;10.52;;
20997;SDS011;10657;51.276;6.390;2022-11-30T16:56:23;21.13;;;11.13;;
20997;SDS011;10657;51.276;6.390;2022-11-30T16:58:49;14.10;;;7.68;;
20997;SDS011;10657;51.276;6.390;2022-11-30T17:04:21;10.95;;;5.63;;
20997;SDS011;10657;51.276;6.390;2022-11-30T17:06:49;14.20;;;7.63;;
20997;SDS011;10657;51.276;6.390;2022-11-30T17:09:21;13.57;;;6.95;;
20997;SDS011;10657;51.276;6.390;2022-11-30T17:11:48;15.57;;;8.50;;
20997;SDS011;10657;51.276;6.390;2022-11-30T17:14:15;15.02;;;8.38;;
20997;SDS011;10657;51.276;6.390;2022-11-30T17:16:43;16.35;;;8.88;;
20997;SDS011;10657;51.276;6.390;2022-11-30T17:19:10;12.40;;;6.65;;
20997;SDS011;10657;51.276;6.390;2022-11-30T17:21:37;22.00;;;12.95;;